WXM80 ListenWXM80 Stop

You find our weather info also at:

UK Metoffice

WeatherCloud

Weather Underground

Northeastern Weather Network

AWEKAS

Citizen Weather Observer Program (CWOP)

HAMweather, WeatherForYou, PWS Weather


Weather Underground History page Text

Daily Summary for Nil La, TWC- Units:  Both    English   Metric
« Previous Day
Next Day »
Daily Weekly Monthly Yearly Custom
  High: Low: Average:
Temperature: 32.5 °F /  0.3 °C 26.5 °F /  -3.1 °C 29.5 °F /  -1.4 °C
Dew Point: 26.7 °F /  -2.9 °C 22.2 °F /  -5.4 °C 23.5 °F /  -4.7 °C
Humidity: 91 % 70 % 78 %
Wind Speed: 2.9 mph /  4.7 km/h - 0.3 mph /  0.5 km/h
Wind Gust: 6.9 mph /  11.1 km/h - -
Wind:- - NNE
Pressure: 30.18 in /  1021.9 hPa 30.14 in /  1020.5 hPa -
Precipitation: 0 in /  0 mm    
Historical Graphs
 
 
Tabular Data for Nil La, TWC-
Time Temperature Dew Point Pressure Wind Wind Speed Wind Gust Humidity Rainfall Rate (Hourly)
00:04 32.5 °F /  0.3 °C 23.8 °F /  -4.6 °C 30.16 in /  1021.2 hPa NNE 0.6 mph /  1 km/h 4.6 mph /  7.4 km/h 70 % 0 in /  0 mm
00:09 32.3 °F /  0.2 °C 23.6 °F /  -4.7 °C 30.16 in /  1021.2 hPa NNE 2.6 mph /  4.2 km/h 5.8 mph /  9.3 km/h 70 % 0 in /  0 mm
00:14 32.3 °F /  0.2 °C 23.6 °F /  -4.7 °C 30.16 in /  1021.2 hPa NNE 0.1 mph /  0.2 km/h 2 mph /  3.2 km/h 70 % 0 in /  0 mm
00:19 32.2 °F /  0.1 °C 23.5 °F /  -4.7 °C 30.16 in /  1021.2 hPa North 2.1 mph /  3.4 km/h 5 mph /  8 km/h 70 % 0 in /  0 mm
00:24 32.1 °F /  0.1 °C 23.4 °F /  -4.8 °C 30.16 in /  1021.2 hPa NNE 1.3 mph /  2.1 km/h 4.6 mph /  7.4 km/h 70 % 0 in /  0 mm
00:29 32 °F /  0 °C 23.3 °F /  -4.8 °C 30.16 in /  1021.2 hPa NNE 0.6 mph /  1 km/h 4 mph /  6.4 km/h 70 % 0 in /  0 mm
00:34 32 °F /  0 °C 23.3 °F /  -4.8 °C 30.16 in /  1021.2 hPa Calm     70 % 0 in /  0 mm
00:39 31.9 °F /  -0.1 °C 23.2 °F /  -4.9 °C 30.16 in /  1021.2 hPa NNE 0.1 mph /  0.2 km/h 2.3 mph /  3.7 km/h 70 % 0 in /  0 mm
00:44 31.8 °F /  -0.1 °C 23.5 °F /  -4.7 °C 30.16 in /  1021.2 hPa Calm     71 % 0 in /  0 mm
00:49 31.7 °F /  -0.2 °C 23.4 °F /  -4.8 °C 30.16 in /  1021.2 hPa Calm     71 % 0 in /  0 mm
00:54 31.7 °F /  -0.2 °C 23.4 °F /  -4.8 °C 30.16 in /  1021.2 hPa Calm     71 % 0 in /  0 mm
00:59 31.6 °F /  -0.2 °C 23.3 °F /  -4.8 °C 30.16 in /  1021.2 hPa Calm   2.3 mph /  3.7 km/h 71 % 0 in /  0 mm
01:04 31.4 °F /  -0.3 °C 23.4 °F /  -4.8 °C 30.16 in /  1021.2 hPa NNE 2.9 mph /  4.7 km/h 4.6 mph /  7.4 km/h 72 % 0 in /  0 mm
01:09 31.4 °F /  -0.3 °C 23.4 °F /  -4.8 °C 30.16 in /  1021.2 hPa Calm   1.2 mph /  1.9 km/h 72 % 0 in /  0 mm
01:14 31.2 °F /  -0.4 °C 23.5 °F /  -4.7 °C 30.16 in /  1021.2 hPa NNE 0.6 mph /  1 km/h 3.5 mph /  5.6 km/h 73 % 0 in /  0 mm
01:19 31.1 °F /  -0.5 °C 23.5 °F /  -4.7 °C 30.16 in /  1021.2 hPa NNE 2.6 mph /  4.2 km/h 6.9 mph /  11.1 km/h 73 % 0 in /  0 mm
01:24 31.1 °F /  -0.5 °C 23.5 °F /  -4.7 °C 30.16 in /  1021.2 hPa NNE 0.6 mph /  1 km/h 6 mph /  9.7 km/h 73 % 0 in /  0 mm
01:29 31 °F /  -0.6 °C 23.7 °F /  -4.6 °C 30.16 in /  1021.2 hPa NNE 1.9 mph /  3.1 km/h 3 mph /  4.8 km/h 74 % 0 in /  0 mm
01:34 31 °F /  -0.6 °C 23.7 °F /  -4.6 °C 30.17 in /  1021.6 hPa Calm     74 % 0 in /  0 mm
01:39 31 °F /  -0.6 °C 24 °F /  -4.4 °C 30.17 in /  1021.6 hPa Calm   3.5 mph /  5.6 km/h 75 % 0 in /  0 mm
01:44 31 °F /  -0.6 °C 24 °F /  -4.4 °C 30.17 in /  1021.6 hPa NNE 1.4 mph /  2.3 km/h 3.5 mph /  5.6 km/h 75 % 0 in /  0 mm
01:49 31 °F /  -0.6 °C 24 °F /  -4.4 °C 30.17 in /  1021.6 hPa NNE 1.5 mph /  2.4 km/h 3.5 mph /  5.6 km/h 75 % 0 in /  0 mm
01:54 31 °F /  -0.6 °C 24 °F /  -4.4 °C 30.17 in /  1021.6 hPa Calm     75 % 0 in /  0 mm
01:59 30.9 °F /  -0.6 °C 23.9 °F /  -4.5 °C 30.17 in /  1021.6 hPa Calm     75 % 0 in /  0 mm
02:04 30.9 °F /  -0.6 °C 23.9 °F /  -4.5 °C 30.17 in /  1021.6 hPa Calm     75 % 0 in /  0 mm
02:09 30.9 °F /  -0.6 °C 23.9 °F /  -4.5 °C 30.17 in /  1021.6 hPa Calm     75 % 0 in /  0 mm
02:14 30.9 °F /  -0.6 °C 23.9 °F /  -4.5 °C 30.18 in /  1021.9 hPa Calm     75 % 0 in /  0 mm
02:19 30.8 °F /  -0.7 °C 23.8 °F /  -4.6 °C 30.17 in /  1021.6 hPa NNE 2.7 mph /  4.3 km/h 3.5 mph /  5.6 km/h 75 % 0 in /  0 mm
02:24 30.8 °F /  -0.7 °C 23.8 °F /  -4.6 °C 30.17 in /  1021.6 hPa Calm     75 % 0 in /  0 mm
02:29 30.8 °F /  -0.7 °C 23.8 °F /  -4.6 °C 30.17 in /  1021.6 hPa NNE 1.2 mph /  1.9 km/h 3.5 mph /  5.6 km/h 75 % 0 in /  0 mm
02:34 30.7 °F /  -0.7 °C 23.7 °F /  -4.6 °C 30.17 in /  1021.6 hPa NNE 1.2 mph /  1.9 km/h   75 % 0 in /  0 mm
02:39 30.6 °F /  -0.8 °C 23.6 °F /  -4.7 °C 30.17 in /  1021.6 hPa Calm   3.5 mph /  5.6 km/h 75 % 0 in /  0 mm
02:44 30.6 °F /  -0.8 °C 23.9 °F /  -4.5 °C 30.17 in /  1021.6 hPa NNE 2.6 mph /  4.2 km/h 4.6 mph /  7.4 km/h 76 % 0 in /  0 mm
02:49 30.6 °F /  -0.8 °C 23.9 °F /  -4.5 °C 30.17 in /  1021.6 hPa NNE 1.9 mph /  3.1 km/h 3.5 mph /  5.6 km/h 76 % 0 in /  0 mm
02:54 30.6 °F /  -0.8 °C 23.9 °F /  -4.5 °C 30.17 in /  1021.6 hPa NNE 0.3 mph /  0.5 km/h 4.6 mph /  7.4 km/h 76 % 0 in /  0 mm
02:59 30.6 °F /  -0.8 °C 23.9 °F /  -4.5 °C 30.17 in /  1021.6 hPa Calm     76 % 0 in /  0 mm
03:04 30.6 °F /  -0.8 °C 23.9 °F /  -4.5 °C 30.17 in /  1021.6 hPa Calm     76 % 0 in /  0 mm
03:09 30.6 °F /  -0.8 °C 23.9 °F /  -4.5 °C 30.16 in /  1021.2 hPa Calm     76 % 0 in /  0 mm
03:14 30.6 °F /  -0.8 °C 23.9 °F /  -4.5 °C 30.16 in /  1021.2 hPa Calm     76 % 0 in /  0 mm
03:19 30.5 °F /  -0.8 °C 23.8 °F /  -4.6 °C 30.16 in /  1021.2 hPa Calm   2.3 mph /  3.7 km/h 76 % 0 in /  0 mm
03:24 30.5 °F /  -0.8 °C 24.1 °F /  -4.4 °C 30.16 in /  1021.2 hPa Calm     77 % 0 in /  0 mm
03:29 30.5 °F /  -0.8 °C 24.1 °F /  -4.4 °C 30.16 in /  1021.2 hPa Calm     77 % 0 in /  0 mm
03:34 30.5 °F /  -0.8 °C 24.1 °F /  -4.4 °C 30.16 in /  1021.2 hPa Calm     77 % 0 in /  0 mm
03:39 30.4 °F /  -0.9 °C 24.1 °F /  -4.4 °C 30.16 in /  1021.2 hPa Calm     77 % 0 in /  0 mm
03:44 30.4 °F /  -0.9 °C 24.1 °F /  -4.4 °C 30.16 in /  1021.2 hPa Calm     77 % 0 in /  0 mm
03:49 30.4 °F /  -0.9 °C 24.4 °F /  -4.2 °C 30.16 in /  1021.2 hPa Calm     78 % 0 in /  0 mm
03:54 30.3 °F /  -0.9 °C 24.3 °F /  -4.3 °C 30.16 in /  1021.2 hPa Calm   3.5 mph /  5.6 km/h 78 % 0 in /  0 mm
03:59 30.3 °F /  -0.9 °C 24.3 °F /  -4.3 °C 30.15 in /  1020.9 hPa Calm     78 % 0 in /  0 mm
04:04 30.3 °F /  -0.9 °C 24.3 °F /  -4.3 °C 30.16 in /  1021.2 hPa Calm     78 % 0 in /  0 mm
04:09 30.2 °F /  -1 °C 24.2 °F /  -4.3 °C 30.15 in /  1020.9 hPa Calm     78 % 0 in /  0 mm
04:14 30.1 °F /  -1.1 °C 24.1 °F /  -4.4 °C 30.15 in /  1020.9 hPa Calm     78 % 0 in /  0 mm
04:19 30 °F /  -1.1 °C 24 °F /  -4.4 °C 30.15 in /  1020.9 hPa Calm     78 % 0 in /  0 mm
04:24 29.8 °F /  -1.2 °C 23.8 °F /  -4.6 °C 30.15 in /  1020.9 hPa Calm     78 % 0 in /  0 mm
04:29 29.7 °F /  -1.3 °C 23.7 °F /  -4.6 °C 30.15 in /  1020.9 hPa Calm     78 % 0 in /  0 mm
04:34 29.5 °F /  -1.4 °C 23.5 °F /  -4.7 °C 30.15 in /  1020.9 hPa Calm     78 % 0 in /  0 mm
04:39 29.3 °F /  -1.5 °C 23.3 °F /  -4.8 °C 30.15 in /  1020.9 hPa Calm     78 % 0 in /  0 mm
04:44 29.2 °F /  -1.6 °C 23.2 °F /  -4.9 °C 30.15 in /  1020.9 hPa Calm     78 % 0 in /  0 mm
04:49 29 °F /  -1.7 °C 23 °F /  -5 °C 30.15 in /  1020.9 hPa Calm     78 % 0 in /  0 mm
04:54 28.8 °F /  -1.8 °C 23.1 °F /  -4.9 °C 30.15 in /  1020.9 hPa Calm     79 % 0 in /  0 mm
04:59 28.7 °F /  -1.8 °C 23 °F /  -5 °C 30.15 in /  1020.9 hPa Calm     79 % 0 in /  0 mm
05:04 28.5 °F /  -1.9 °C 22.8 °F /  -5.1 °C 30.15 in /  1020.9 hPa Calm     79 % 0 in /  0 mm
05:09 28.4 °F /  -2 °C 22.7 °F /  -5.2 °C 30.15 in /  1020.9 hPa Calm     79 % 0 in /  0 mm
05:14 28.2 °F /  -2.1 °C 22.5 °F /  -5.3 °C 30.15 in /  1020.9 hPa Calm     79 % 0 in /  0 mm
05:19 28.1 °F /  -2.2 °C 22.7 °F /  -5.2 °C 30.15 in /  1020.9 hPa Calm     80 % 0 in /  0 mm
05:24 28 °F /  -2.2 °C 22.6 °F /  -5.2 °C 30.15 in /  1020.9 hPa Calm     80 % 0 in /  0 mm
05:29 28 °F /  -2.2 °C 22.9 °F /  -5.1 °C 30.15 in /  1020.9 hPa Calm     81 % 0 in /  0 mm
05:34 27.9 °F /  -2.3 °C 22.8 °F /  -5.1 °C 30.15 in /  1020.9 hPa Calm     81 % 0 in /  0 mm
05:39 27.8 °F /  -2.3 °C 22.7 °F /  -5.2 °C 30.15 in /  1020.9 hPa Calm     81 % 0 in /  0 mm
05:44 27.7 °F /  -2.4 °C 22.9 °F /  -5.1 °C 30.15 in /  1020.9 hPa Calm     82 % 0 in /  0 mm
05:49 27.7 °F /  -2.4 °C 22.9 °F /  -5.1 °C 30.15 in /  1020.9 hPa Calm     82 % 0 in /  0 mm
05:54 27.5 °F /  -2.5 °C 22.7 °F /  -5.2 °C 30.15 in /  1020.9 hPa Calm     82 % 0 in /  0 mm
05:59 27.4 °F /  -2.6 °C 22.6 °F /  -5.2 °C 30.15 in /  1020.9 hPa Calm     82 % 0 in /  0 mm
06:04 27.3 °F /  -2.6 °C 22.5 °F /  -5.3 °C 30.15 in /  1020.9 hPa Calm     82 % 0 in /  0 mm
06:09 27.2 °F /  -2.7 °C 22.4 °F /  -5.3 °C 30.15 in /  1020.9 hPa Calm     82 % 0 in /  0 mm
06:14 27 °F /  -2.8 °C 22.2 °F /  -5.4 °C 30.15 in /  1020.9 hPa Calm     82 % 0 in /  0 mm
06:19 27 °F /  -2.8 °C 22.5 °F /  -5.3 °C 30.15 in /  1020.9 hPa Calm     83 % 0 in /  0 mm
06:24 26.9 °F /  -2.8 °C 22.4 °F /  -5.3 °C 30.15 in /  1020.9 hPa Calm     83 % 0 in /  0 mm
06:29 26.9 °F /  -2.8 °C 22.7 °F /  -5.2 °C 30.15 in /  1020.9 hPa Calm     84 % 0 in /  0 mm
06:34 26.9 °F /  -2.8 °C 22.7 °F /  -5.2 °C 30.15 in /  1020.9 hPa Calm     84 % 0 in /  0 mm
06:39 26.9 °F /  -2.8 °C 22.7 °F /  -5.2 °C 30.15 in /  1020.9 hPa Calm     84 % 0 in /  0 mm
06:44 26.8 °F /  -2.9 °C 22.6 °F /  -5.2 °C 30.15 in /  1020.9 hPa Calm     84 % 0 in /  0 mm
06:49 26.7 °F /  -2.9 °C 22.5 °F /  -5.3 °C 30.15 in /  1020.9 hPa Calm     84 % 0 in /  0 mm
06:54 26.7 °F /  -2.9 °C 22.8 °F /  -5.1 °C 30.15 in /  1020.9 hPa Calm     85 % 0 in /  0 mm
06:59 26.6 °F /  -3 °C 22.7 °F /  -5.2 °C 30.15 in /  1020.9 hPa Calm     85 % 0 in /  0 mm
07:04 26.6 °F /  -3 °C 22.7 °F /  -5.2 °C 30.15 in /  1020.9 hPa Calm     85 % 0 in /  0 mm
07:09 26.5 °F /  -3.1 °C 22.6 °F /  -5.2 °C 30.15 in /  1020.9 hPa Calm     85 % 0 in /  0 mm
07:14 26.5 °F /  -3.1 °C 22.9 °F /  -5.1 °C 30.15 in /  1020.9 hPa Calm     86 % 0 in /  0 mm
07:19 26.5 °F /  -3.1 °C 22.9 °F /  -5.1 °C 30.15 in /  1020.9 hPa Calm     86 % 0 in /  0 mm
07:24 26.6 °F /  -3 °C 23.3 °F /  -4.8 °C 30.15 in /  1020.9 hPa NE 0.4 mph /  0.6 km/h 3.5 mph /  5.6 km/h 87 % 0 in /  0 mm
07:29 26.7 °F /  -2.9 °C 23.4 °F /  -4.8 °C 30.15 in /  1020.9 hPa Calm     87 % 0 in /  0 mm
07:34 26.9 °F /  -2.8 °C 23.8 °F /  -4.6 °C 30.15 in /  1020.9 hPa Calm     88 % 0 in /  0 mm
07:39 27.2 °F /  -2.7 °C 24.7 °F /  -4.1 °C 30.15 in /  1020.9 hPa Calm     90 % 0 in /  0 mm
07:44 27.6 °F /  -2.4 °C 25.1 °F /  -3.8 °C 30.15 in /  1020.9 hPa Calm   3.5 mph /  5.6 km/h 90 % 0 in /  0 mm
07:49 28.3 °F /  -2.1 °C 26 °F /  -3.3 °C 30.14 in /  1020.5 hPa NE 1.1 mph /  1.8 km/h 3.5 mph /  5.6 km/h 91 % 0 in /  0 mm
07:54 28.7 °F /  -1.8 °C 26.4 °F /  -3.1 °C 30.14 in /  1020.5 hPa Calm   1.2 mph /  1.9 km/h 91 % 0 in /  0 mm
07:59 29 °F /  -1.7 °C 26.7 °F /  -2.9 °C 30.14 in /  1020.5 hPa Calm   1.2 mph /  1.9 km/h 91 % 0 in /  0 mm
Crab Meadow Weather
Compliments of Weather Underground - 1.75 mb

Script developed by  Jim McMurry - jmcmurry@mwt.net Adapted for the template by  Wim van der Kuil - Leuven-Template.eu

Weather Terms: Wind Advisory - Sustained winds of 30 mph or greater or gusts to 45 mph or greater for a duration of one hour or longer.